createdAt,value
2023-05-20T00:00:01.522Z,16.48
2023-05-20T00:02:28.830Z,16.55
2023-05-20T00:04:56.019Z,16.49
2023-05-20T00:07:23.165Z,16.48
2023-05-20T00:09:50.129Z,16.47
2023-05-20T00:12:17.036Z,16.42
2023-05-20T00:14:43.927Z,16.21
2023-05-20T00:17:10.784Z,16.34
2023-05-20T00:19:37.667Z,16.17
2023-05-20T00:22:05.448Z,16.25
2023-05-20T00:24:32.299Z,16.34
2023-05-20T00:26:59.172Z,16.14
2023-05-20T00:29:26.049Z,16.27
2023-05-20T00:31:53.037Z,16.04
2023-05-20T00:34:20.684Z,16.01
2023-05-20T00:36:47.574Z,15.97
2023-05-20T00:39:14.399Z,16.07
2023-05-20T00:41:41.285Z,15.85
2023-05-20T00:44:08.247Z,15.73
2023-05-20T00:46:36.097Z,15.84
2023-05-20T00:49:03.119Z,15.94
2023-05-20T00:51:30.101Z,16.01
2023-05-20T00:53:57.652Z,15.98
2023-05-20T00:56:25.199Z,15.92
2023-05-20T00:58:52.354Z,15.99
2023-05-20T01:01:19.295Z,15.89
2023-05-20T01:03:46.900Z,15.96
2023-05-20T01:06:13.865Z,15.83
2023-05-20T01:08:40.959Z,15.86
2023-05-20T01:11:21.572Z,15.97
2023-05-20T01:13:55.754Z,15.93
2023-05-20T01:16:24.927Z,15.84
2023-05-20T01:18:56.079Z,15.93
2023-05-20T01:21:23.776Z,15.93
2023-05-20T01:23:51.133Z,15.71
2023-05-20T01:26:18.987Z,15.73
2023-05-20T01:28:45.958Z,15.88
2023-05-20T01:31:22.921Z,15.76
2023-05-20T01:33:58.056Z,15.79
2023-05-20T01:36:27.563Z,15.70
2023-05-20T01:38:54.949Z,15.63
2023-05-20T01:41:25.230Z,15.52
2023-05-20T01:43:52.376Z,15.42
2023-05-20T01:46:19.361Z,15.34
2023-05-20T01:48:46.227Z,15.53
2023-05-20T01:51:13.111Z,15.45
2023-05-20T01:53:39.986Z,15.49
2023-05-20T01:56:06.954Z,15.35
2023-05-20T01:58:33.978Z,15.49
2023-05-20T02:01:01.640Z,15.52
2023-05-20T02:03:28.669Z,15.42
2023-05-20T02:05:55.688Z,15.25
2023-05-20T02:08:22.629Z,15.39
2023-05-20T02:10:49.686Z,15.38
2023-05-20T02:13:16.743Z,15.23
2023-05-20T02:15:43.693Z,15.30
2023-05-20T02:18:12.472Z,15.32
2023-05-20T02:20:39.578Z,15.40
2023-05-20T02:23:06.626Z,15.33
2023-05-20T02:25:33.817Z,15.33
2023-05-20T02:28:00.932Z,15.39
2023-05-20T02:30:27.940Z,15.36
2023-05-20T02:32:54.849Z,15.25
2023-05-20T02:35:21.808Z,15.47
2023-05-20T02:37:48.658Z,15.33
2023-05-20T02:40:15.623Z,15.28
2023-05-20T02:42:42.512Z,15.55
2023-05-20T02:45:09.817Z,15.55
2023-05-20T02:47:36.716Z,15.55
2023-05-20T02:50:04.053Z,15.55
2023-05-20T02:52:30.923Z,15.59
2023-05-20T02:54:58.472Z,15.58
2023-05-20T02:57:27.284Z,15.46
2023-05-20T02:59:56.336Z,15.48
2023-05-20T03:02:23.671Z,15.37
2023-05-20T03:04:50.713Z,15.53
2023-05-20T03:07:19.705Z,15.48
2023-05-20T03:09:46.872Z,15.40
2023-05-20T03:12:13.791Z,15.45
2023-05-20T03:14:40.657Z,15.50
2023-05-20T03:17:09.049Z,15.55
2023-05-20T03:19:36.139Z,15.56
2023-05-20T03:22:03.047Z,15.50
2023-05-20T03:24:30.085Z,15.12
2023-05-20T03:26:57.073Z,15.39
2023-05-20T03:29:24.006Z,15.47
2023-05-20T03:31:51.242Z,15.54
2023-05-20T03:34:18.194Z,15.53
2023-05-20T03:36:45.210Z,15.49
2023-05-20T03:39:12.231Z,15.42
2023-05-20T03:41:39.137Z,15.53
2023-05-20T03:44:06.246Z,15.41
2023-05-20T03:46:34.356Z,15.53
2023-05-20T03:49:04.579Z,15.35
2023-05-20T03:51:31.525Z,15.52
2023-05-20T03:53:58.401Z,15.54
2023-05-20T03:56:26.392Z,15.57
2023-05-20T03:58:53.569Z,15.68
2023-05-20T04:01:21.242Z,15.47
2023-05-20T04:03:48.228Z,15.50
2023-05-20T04:06:15.216Z,15.68
2023-05-20T04:08:42.365Z,15.68
2023-05-20T04:11:09.269Z,15.59
2023-05-20T04:13:36.148Z,15.54
2023-05-20T04:16:05.339Z,15.55
2023-05-20T04:18:32.231Z,15.62
2023-05-20T04:21:01.942Z,15.67
2023-05-20T04:23:29.087Z,15.81
2023-05-20T04:25:56.073Z,15.86
2023-05-20T04:28:23.953Z,15.86
2023-05-20T04:31:05.112Z,15.95
2023-05-20T04:33:33.018Z,16.13
2023-05-20T04:36:01.430Z,15.86
2023-05-20T04:38:32.582Z,15.95
2023-05-20T04:41:00.321Z,16.00
2023-05-20T04:43:30.057Z,16.07
2023-05-20T04:45:57.909Z,16.18
2023-05-20T04:48:24.857Z,15.99
2023-05-20T04:50:55.001Z,16.08
2023-05-20T04:53:21.985Z,16.15
2023-05-20T04:55:55.109Z,16.20
2023-05-20T04:58:24.317Z,16.31
2023-05-20T05:00:52.396Z,16.27
2023-05-20T05:03:19.304Z,16.47
2023-05-20T05:05:46.219Z,16.60
2023-05-20T05:08:13.137Z,16.60
2023-05-20T05:10:40.543Z,16.60
2023-05-20T05:13:07.409Z,16.67
2023-05-20T05:15:34.443Z,17.02
2023-05-20T05:18:01.799Z,16.90
2023-05-20T05:20:28.712Z,16.99
2023-05-20T05:22:55.580Z,17.26
2023-05-20T05:25:22.437Z,17.21
2023-05-20T05:27:50.398Z,17.36
2023-05-20T05:30:17.405Z,17.60
2023-05-20T05:32:44.372Z,17.56
2023-05-20T05:35:11.385Z,17.51
2023-05-20T05:37:38.348Z,17.54
2023-05-20T05:40:08.179Z,17.78
2023-05-20T05:42:35.056Z,18.03
2023-05-20T05:45:01.970Z,18.18
2023-05-20T05:47:32.596Z,18.31
2023-05-20T05:50:00.098Z,18.58
2023-05-20T05:52:27.472Z,18.76
2023-05-20T05:54:55.517Z,18.74
2023-05-20T05:57:22.663Z,18.45
2023-05-20T05:59:49.529Z,18.80
2023-05-20T06:02:16.455Z,18.83
2023-05-20T06:04:43.455Z,19.12
2023-05-20T06:07:10.680Z,19.38
2023-05-20T06:09:39.163Z,19.65
2023-05-20T06:12:06.306Z,19.98
2023-05-20T06:14:33.281Z,20.24
2023-05-20T06:17:00.526Z,20.50
2023-05-20T06:19:27.496Z,20.69
2023-05-20T06:21:54.351Z,20.91
2023-05-20T06:24:22.412Z,21.05
2023-05-20T06:26:52.257Z,20.79
2023-05-20T06:29:19.225Z,20.22
2023-05-20T06:31:46.065Z,19.96
2023-05-20T06:34:13.039Z,20.33
2023-05-20T06:36:39.896Z,20.57
2023-05-20T06:39:12.180Z,20.39
2023-05-20T06:41:40.180Z,20.58
2023-05-20T06:44:08.137Z,20.51
2023-05-20T06:46:35.245Z,19.96
2023-05-20T06:49:03.116Z,20.32
2023-05-20T06:51:29.985Z,20.85
2023-05-20T06:53:56.864Z,21.21
2023-05-20T06:56:23.737Z,21.62
2023-05-20T06:58:50.633Z,21.00
2023-05-20T07:01:18.248Z,21.43
2023-05-20T07:03:45.554Z,21.77
2023-05-20T07:06:12.511Z,21.83
2023-05-20T07:08:39.336Z,22.20
2023-05-20T07:11:06.302Z,22.11
2023-05-20T07:13:33.129Z,22.30
2023-05-20T07:16:00.037Z,22.26
2023-05-20T07:18:26.976Z,22.53
2023-05-20T07:20:54.136Z,22.62
2023-05-20T07:23:20.954Z,22.65
2023-05-20T07:25:47.826Z,22.88
2023-05-20T07:28:16.833Z,22.54
2023-05-20T07:30:49.904Z,22.37
2023-05-20T07:33:17.674Z,22.48
2023-05-20T07:35:45.522Z,22.65
2023-05-20T07:38:13.146Z,22.57
2023-05-20T07:40:41.466Z,22.64
2023-05-20T07:43:09.215Z,22.28
2023-05-20T07:45:39.403Z,22.30
2023-05-20T07:48:08.673Z,22.30
2023-05-20T07:50:36.427Z,22.84
2023-05-20T07:53:03.296Z,22.98
2023-05-20T07:55:31.323Z,23.50
2023-05-20T07:57:58.212Z,23.24
2023-05-20T08:00:25.139Z,23.50
2023-05-20T08:02:52.265Z,23.37
2023-05-20T08:05:19.411Z,23.34
2023-05-20T08:07:46.431Z,23.43
2023-05-20T08:10:13.364Z,24.11
2023-05-20T08:12:40.289Z,24.12
2023-05-20T08:15:08.302Z,24.66
2023-05-20T08:17:35.456Z,24.91
2023-05-20T08:20:02.582Z,25.02
2023-05-20T08:22:29.455Z,24.91
2023-05-20T08:24:56.362Z,24.93
2023-05-20T08:27:23.295Z,25.17
2023-05-20T08:29:50.193Z,25.01
2023-05-20T08:32:17.051Z,24.95
2023-05-20T08:34:43.910Z,24.41
2023-05-20T08:37:10.854Z,23.98
2023-05-20T08:39:37.738Z,24.32
2023-05-20T08:42:06.957Z,24.81
2023-05-20T08:44:34.847Z,25.27
2023-05-20T08:47:03.924Z,25.61
2023-05-20T08:49:32.056Z,25.19
2023-05-20T08:52:01.365Z,25.32
2023-05-20T08:54:46.030Z,25.53
2023-05-20T08:57:14.090Z,25.82
2023-05-20T08:59:46.842Z,25.53
2023-05-20T09:02:14.561Z,25.40
2023-05-20T09:04:41.600Z,25.05
2023-05-20T09:07:09.072Z,25.99
2023-05-20T09:09:36.303Z,25.54
2023-05-20T09:12:04.204Z,24.69
2023-05-20T09:14:31.905Z,25.45
2023-05-20T09:16:59.430Z,24.65
2023-05-20T09:19:26.906Z,25.48
2023-05-20T09:21:55.200Z,25.16
2023-05-20T09:24:26.785Z,25.02
2023-05-20T09:26:54.001Z,25.52
2023-05-20T09:29:21.714Z,25.38
2023-05-20T09:31:50.225Z,26.12
2023-05-20T09:34:17.939Z,26.67
2023-05-20T09:36:45.589Z,26.50
2023-05-20T09:39:20.279Z,26.48
2023-05-20T09:41:58.381Z,25.98
2023-05-20T09:44:25.612Z,26.30
2023-05-20T09:46:53.341Z,26.09
2023-05-20T09:49:21.697Z,26.24
2023-05-20T09:51:50.836Z,26.64
2023-05-20T09:54:22.520Z,26.55
2023-05-20T09:56:50.821Z,26.07
2023-05-20T09:59:21.899Z,26.41
2023-05-20T10:01:48.870Z,25.90
2023-05-20T10:04:18.290Z,25.34
2023-05-20T10:07:04.039Z,25.51
2023-05-20T10:09:54.073Z,24.82
2023-05-20T10:13:00.419Z,25.50
2023-05-20T10:15:44.128Z,25.68
2023-05-20T10:18:42.505Z,25.29
2023-05-20T10:21:25.317Z,25.67
2023-05-20T10:23:52.463Z,26.07
2023-05-20T10:26:21.815Z,26.75
2023-05-20T10:28:49.604Z,26.68
2023-05-20T10:31:21.066Z,26.55
2023-05-20T10:33:49.522Z,26.87
2023-05-20T10:36:27.753Z,26.74
2023-05-20T10:38:58.744Z,26.53
2023-05-20T10:41:28.854Z,26.70
2023-05-20T10:44:03.493Z,26.51
2023-05-20T10:46:40.078Z,27.14
2023-05-20T10:49:25.042Z,27.21
2023-05-20T10:51:52.418Z,26.90
2023-05-20T10:54:19.335Z,27.05
2023-05-20T10:56:54.024Z,26.72
2023-05-20T10:59:22.067Z,26.63
2023-05-20T11:01:49.496Z,27.34
2023-05-20T11:04:17.432Z,27.09
2023-05-20T11:06:54.028Z,26.38
2023-05-20T11:09:21.433Z,25.53
2023-05-20T11:11:49.121Z,26.00
2023-05-20T11:14:18.022Z,25.60
2023-05-20T11:16:45.806Z,26.20
2023-05-20T11:19:16.943Z,26.88
2023-05-20T11:21:45.691Z,27.24
2023-05-20T11:24:13.743Z,27.79
2023-05-20T11:26:41.142Z,27.39
2023-05-20T11:29:08.305Z,27.19
2023-05-20T11:31:39.059Z,27.49
2023-05-20T11:34:06.124Z,27.49
2023-05-20T11:36:33.020Z,27.82
2023-05-20T11:39:00.953Z,28.14
2023-05-20T11:41:28.808Z,27.96
2023-05-20T11:44:00.929Z,27.74
2023-05-20T11:46:28.755Z,28.82
2023-05-20T11:48:56.966Z,28.88
2023-05-20T11:51:30.326Z,28.02
2023-05-20T11:54:07.320Z,27.69
2023-05-20T11:56:39.130Z,27.63
2023-05-20T11:59:08.296Z,27.11
2023-05-20T12:01:46.011Z,26.86
2023-05-20T12:04:14.878Z,27.68
2023-05-20T12:06:44.002Z,28.79
2023-05-20T12:09:11.257Z,29.65
2023-05-20T12:11:41.299Z,29.60
2023-05-20T12:14:09.369Z,29.26
2023-05-20T12:16:38.030Z,28.93
2023-05-20T12:19:05.417Z,28.80
2023-05-20T12:21:32.521Z,29.62
2023-05-20T12:24:00.141Z,29.34
2023-05-20T12:26:28.817Z,28.50
2023-05-20T12:28:56.097Z,29.10
2023-05-20T12:31:23.403Z,29.57
2023-05-20T12:33:50.683Z,29.58
2023-05-20T12:36:17.668Z,28.91
2023-05-20T12:38:44.551Z,29.65
2023-05-20T12:41:11.850Z,29.38
2023-05-20T12:43:38.756Z,29.11
2023-05-20T12:46:06.253Z,29.71
2023-05-20T12:48:33.190Z,29.51
2023-05-20T12:51:00.487Z,29.29
2023-05-20T12:53:27.444Z,28.96
2023-05-20T12:55:54.372Z,29.26
2023-05-20T12:58:21.263Z,28.77
2023-05-20T13:00:48.288Z,29.10
2023-05-20T13:03:15.400Z,28.30
2023-05-20T13:05:42.416Z,28.96
2023-05-20T13:08:10.151Z,29.74
2023-05-20T13:10:37.858Z,29.91
2023-05-20T13:13:05.056Z,29.79
2023-05-20T13:15:33.214Z,29.52
2023-05-20T13:18:01.459Z,29.21
2023-05-20T13:20:29.809Z,29.39
2023-05-20T13:22:56.659Z,29.36
2023-05-20T13:25:23.612Z,29.66
2023-05-20T13:27:50.870Z,29.50
2023-05-20T13:30:17.923Z,29.95
2023-05-20T13:32:44.840Z,29.88
2023-05-20T13:35:13.088Z,30.10
2023-05-20T13:37:39.992Z,30.08
2023-05-20T13:40:10.291Z,29.81
2023-05-20T13:42:37.468Z,29.90
2023-05-20T13:45:04.994Z,29.86
2023-05-20T13:47:32.196Z,29.85
2023-05-20T13:50:01.311Z,30.50
2023-05-20T13:52:29.634Z,31.47
2023-05-20T13:54:56.472Z,29.98
2023-05-20T13:57:23.510Z,30.09
2023-05-20T13:59:50.361Z,30.88
2023-05-20T14:02:17.377Z,30.97
2023-05-20T14:04:46.758Z,30.47
2023-05-20T14:07:14.000Z,30.68
2023-05-20T14:09:41.055Z,30.40
2023-05-20T14:12:08.033Z,30.10
2023-05-20T14:14:34.997Z,29.37
2023-05-20T14:17:01.859Z,29.38
2023-05-20T14:19:31.408Z,29.01
2023-05-20T14:22:01.414Z,29.30
2023-05-20T14:24:28.376Z,30.08
2023-05-20T14:26:55.288Z,30.21
2023-05-20T14:29:22.155Z,30.83
2023-05-20T14:31:49.045Z,30.08
2023-05-20T14:34:15.911Z,28.93
2023-05-20T14:36:43.792Z,28.57
2023-05-20T14:39:10.653Z,28.52
2023-05-20T14:41:37.525Z,28.39
2023-05-20T14:44:04.487Z,28.89
2023-05-20T14:46:31.530Z,29.36
2023-05-20T14:48:58.489Z,28.86
2023-05-20T14:51:25.402Z,29.06
2023-05-20T14:53:52.241Z,28.66
2023-05-20T14:56:19.074Z,28.77
2023-05-20T14:58:45.944Z,28.56
2023-05-20T15:01:12.913Z,28.39
2023-05-20T15:03:39.957Z,28.30
2023-05-20T15:06:07.037Z,28.29
2023-05-20T15:08:33.915Z,27.83
2023-05-20T15:11:01.142Z,27.90
2023-05-20T15:13:28.023Z,27.50
2023-05-20T15:15:54.908Z,27.51
2023-05-20T15:18:22.380Z,27.50
2023-05-20T15:20:49.299Z,27.69
2023-05-20T15:23:17.690Z,27.48
2023-05-20T15:25:44.553Z,27.38
2023-05-20T15:28:11.679Z,27.53
2023-05-20T15:30:38.587Z,27.41
2023-05-20T15:33:05.556Z,27.23
2023-05-20T15:35:32.549Z,27.50
2023-05-20T15:37:59.416Z,27.55
2023-05-20T15:40:26.280Z,27.46
2023-05-20T15:42:53.509Z,26.92
2023-05-20T15:45:20.647Z,26.76
2023-05-20T15:47:47.571Z,26.94
2023-05-20T15:50:14.469Z,26.62
2023-05-20T15:52:41.460Z,26.59
2023-05-20T15:55:09.524Z,26.50
2023-05-20T15:57:36.417Z,26.68
2023-05-20T16:00:06.281Z,26.99
2023-05-20T16:02:35.980Z,27.20
2023-05-20T16:05:04.089Z,27.01
2023-05-20T16:07:31.356Z,27.45
2023-05-20T16:09:58.274Z,26.86
2023-05-20T16:12:25.109Z,27.58
2023-05-20T16:14:52.008Z,27.37
2023-05-20T16:17:21.700Z,27.27
2023-05-20T16:19:49.468Z,27.03
2023-05-20T16:22:18.036Z,27.32
2023-05-20T16:24:45.818Z,26.81
2023-05-20T16:27:12.889Z,27.13
2023-05-20T16:29:39.835Z,26.58
2023-05-20T16:32:07.501Z,26.92
2023-05-20T16:34:34.588Z,26.81
2023-05-20T16:37:01.824Z,26.67
2023-05-20T16:39:28.721Z,26.34
2023-05-20T16:41:55.595Z,25.99
2023-05-20T16:44:22.498Z,26.28
2023-05-20T16:46:49.618Z,26.13
2023-05-20T16:49:17.276Z,26.24
2023-05-20T16:51:44.143Z,26.48
2023-05-20T16:54:11.367Z,26.26
2023-05-20T16:56:38.208Z,26.29
2023-05-20T16:59:05.130Z,26.03
2023-05-20T17:01:32.179Z,26.10
2023-05-20T17:03:59.102Z,26.04
2023-05-20T17:06:25.963Z,25.99
2023-05-20T17:08:52.864Z,25.90
2023-05-20T17:11:19.709Z,25.74
2023-05-20T17:13:46.576Z,25.73
2023-05-20T17:16:13.566Z,25.42
2023-05-20T17:18:40.560Z,25.78
2023-05-20T17:21:07.532Z,25.78
2023-05-20T17:23:34.390Z,25.65
2023-05-20T17:26:01.369Z,25.53
2023-05-20T17:28:28.264Z,25.21
2023-05-20T17:30:55.116Z,25.28
2023-05-20T17:33:22.104Z,25.24
2023-05-20T17:35:49.125Z,25.25
2023-05-20T17:38:16.018Z,24.93
2023-05-20T17:40:43.433Z,25.12
2023-05-20T17:43:10.353Z,25.12
2023-05-20T17:45:37.274Z,24.94
2023-05-20T17:48:08.774Z,24.97
2023-05-20T17:50:37.767Z,25.00
2023-05-20T17:53:04.645Z,24.91
2023-05-20T17:55:32.832Z,24.72
2023-05-20T17:58:01.780Z,24.69
2023-05-20T18:00:28.770Z,24.43
2023-05-20T18:02:58.519Z,24.30
2023-05-20T18:05:25.790Z,24.48
2023-05-20T18:07:52.850Z,24.19
2023-05-20T18:10:19.802Z,24.07
2023-05-20T18:12:46.618Z,24.30
2023-05-20T18:15:14.091Z,24.14
2023-05-20T18:17:41.216Z,24.05
2023-05-20T18:20:09.688Z,24.04
2023-05-20T18:22:36.589Z,23.81
2023-05-20T18:25:03.673Z,23.93
2023-05-20T18:27:31.813Z,23.87
2023-05-20T18:29:58.711Z,23.54
2023-05-20T18:32:28.373Z,23.74
2023-05-20T18:34:55.422Z,23.70
2023-05-20T18:37:22.280Z,23.54
2023-05-20T18:39:49.252Z,23.59
2023-05-20T18:42:17.141Z,23.54
2023-05-20T18:44:44.047Z,23.42
2023-05-20T18:47:11.162Z,23.26
2023-05-20T18:49:38.014Z,23.23
2023-05-20T18:52:05.332Z,23.46
2023-05-20T18:54:32.192Z,23.38
2023-05-20T18:56:59.170Z,23.26
2023-05-20T18:59:26.026Z,23.23
2023-05-20T19:01:52.865Z,23.26
2023-05-20T19:04:19.732Z,23.11
2023-05-20T19:06:48.025Z,22.82
2023-05-20T19:09:14.937Z,22.84
2023-05-20T19:11:41.761Z,22.83
2023-05-20T19:14:08.595Z,22.95
2023-05-20T19:16:35.737Z,22.60
2023-05-20T19:19:02.674Z,22.77
2023-05-20T19:21:31.281Z,22.80
2023-05-20T19:23:58.409Z,22.59
2023-05-20T19:26:26.423Z,22.53
2023-05-20T19:28:53.329Z,22.52
2023-05-20T19:31:22.927Z,22.56
2023-05-20T19:33:52.660Z,22.47
2023-05-20T19:36:19.735Z,22.37
2023-05-20T19:38:46.875Z,22.33
2023-05-20T19:41:14.245Z,22.54
2023-05-20T19:43:41.127Z,22.48
2023-05-20T19:46:08.108Z,22.36
2023-05-20T19:48:35.064Z,22.38
2023-05-20T19:51:02.513Z,22.41
2023-05-20T19:53:29.371Z,22.28
2023-05-20T19:55:56.240Z,22.02
2023-05-20T19:58:23.248Z,22.29
2023-05-20T20:00:50.112Z,22.09
2023-05-20T20:03:17.032Z,21.93
2023-05-20T20:05:43.968Z,22.11
2023-05-20T20:08:10.817Z,22.03
2023-05-20T20:10:37.833Z,22.10
2023-05-20T20:13:04.697Z,22.07
2023-05-20T20:15:32.081Z,21.93
2023-05-20T20:17:59.398Z,22.07
2023-05-20T20:20:26.894Z,21.93
2023-05-20T20:22:53.899Z,21.87
2023-05-20T20:25:20.975Z,21.78
2023-05-20T20:27:48.609Z,21.94
2023-05-20T20:30:15.653Z,21.84
2023-05-20T20:32:42.797Z,21.81
2023-05-20T20:35:10.775Z,21.83
2023-05-20T20:37:38.381Z,21.65
2023-05-20T20:40:08.063Z,21.63
2023-05-20T20:42:34.967Z,21.44
2023-05-20T20:45:02.294Z,21.60
2023-05-20T20:47:29.319Z,21.61
2023-05-20T20:49:56.750Z,21.44
2023-05-20T20:52:23.677Z,21.45
2023-05-20T20:54:50.511Z,21.47
2023-05-20T20:57:17.523Z,21.52
2023-05-20T20:59:47.857Z,21.47
2023-05-20T21:02:15.518Z,21.51
2023-05-20T21:04:43.086Z,21.39
2023-05-20T21:07:10.154Z,21.46
2023-05-20T21:09:36.999Z,21.40
2023-05-20T21:12:06.536Z,21.46
2023-05-20T21:14:33.471Z,21.36
2023-05-20T21:17:00.619Z,21.37
2023-05-20T21:19:27.759Z,21.24
2023-05-20T21:21:54.812Z,21.24
2023-05-20T21:24:21.717Z,21.18
2023-05-20T21:26:48.564Z,21.44
2023-05-20T21:29:15.436Z,21.28
2023-05-20T21:31:42.403Z,21.43
2023-05-20T21:34:09.252Z,21.35
2023-05-20T21:36:36.301Z,21.31
2023-05-20T21:39:03.605Z,21.27
2023-05-20T21:41:30.469Z,21.31
2023-05-20T21:43:57.306Z,21.24
2023-05-20T21:46:24.179Z,21.18
2023-05-20T21:48:51.097Z,21.20
2023-05-20T21:51:17.937Z,21.08
2023-05-20T21:53:45.885Z,21.01
2023-05-20T21:56:12.788Z,21.03
2023-05-20T21:58:41.608Z,20.99
2023-05-20T22:01:09.758Z,21.11
2023-05-20T22:03:37.163Z,21.09
2023-05-20T22:06:05.079Z,20.98
2023-05-20T22:08:35.030Z,20.86
2023-05-20T22:11:07.469Z,20.89
2023-05-20T22:13:35.757Z,20.87
2023-05-20T22:16:04.908Z,20.78
2023-05-20T22:18:32.130Z,20.71
2023-05-20T22:21:01.839Z,20.83
2023-05-20T22:23:29.248Z,20.93
2023-05-20T22:25:56.741Z,20.76
2023-05-20T22:28:23.765Z,20.64
2023-05-20T22:30:51.507Z,20.51
2023-05-20T22:33:18.462Z,20.62
2023-05-20T22:35:45.305Z,20.66
2023-05-20T22:38:12.130Z,20.48
2023-05-20T22:40:39.326Z,20.62
2023-05-20T22:43:06.300Z,20.55
2023-05-20T22:45:33.218Z,20.42
2023-05-20T22:48:00.224Z,20.64
2023-05-20T22:50:27.683Z,20.64
2023-05-20T22:52:54.858Z,20.41
2023-05-20T22:55:23.254Z,20.44
2023-05-20T22:57:50.127Z,20.45
2023-05-20T23:00:18.066Z,20.31
2023-05-20T23:02:49.605Z,20.36
2023-05-20T23:05:16.798Z,20.25
2023-05-20T23:07:44.779Z,20.28
2023-05-20T23:10:11.807Z,20.22
2023-05-20T23:12:38.721Z,20.04
2023-05-20T23:15:06.668Z,20.21
2023-05-20T23:17:33.516Z,20.09
2023-05-20T23:20:00.507Z,20.06
2023-05-20T23:22:27.557Z,20.13
2023-05-20T23:24:54.433Z,20.12
2023-05-20T23:27:21.328Z,19.86
2023-05-20T23:29:48.170Z,20.00
2023-05-20T23:32:15.092Z,20.01
2023-05-20T23:34:43.467Z,19.94
2023-05-20T23:37:10.378Z,19.99
2023-05-20T23:39:37.256Z,19.94
2023-05-20T23:42:05.054Z,19.88
2023-05-20T23:44:31.961Z,19.87
2023-05-20T23:46:58.809Z,19.85
2023-05-20T23:49:26.942Z,19.90
2023-05-20T23:51:54.002Z,19.85
2023-05-20T23:54:21.025Z,19.87
2023-05-20T23:56:48.789Z,19.87
2023-05-20T23:59:15.999Z,19.73
